KPIR

Pierre Regional Airport

Pierre, South Dakota, USA
METAR KPIR 170953Z AUTO 00000KT 10SM CLR M16/M18 A3023 RMK AO2 SLP272 T11611183
Observed Flight Rules
Jan-17 @ 09:53 UTC (44 minutes ago) Visual Flight Rules
Wind Visibility Clouds
Calm 10 miles
  • Clear skies
Temperatures Readings
Current -16°C / 3°F
Dewpoint -18°C / -0°F
Humidity 85%
Altimeter 30.23" Hg
Pressure 1027.2 hPa
Elevation 526
METAR KPIR 170953Z AUTO 00000KT 10SM CLR M16/M18 A3023 RMK AO2 SLP272 T11611183
Observed Flight Rules
Jan-17 @ 09:53 UTC
(44 minutes ago)
VFR
Wind Visibility
Calm 10 miles
Clouds
  • Clear skies
Temperature Dewpoint
-16°C / 3°F -18°C / -0°F
Humidity Altimeter Pressure
85% 30.23" Hg 1027.2 hPa